createdAt,value
2023-04-28T00:00:58.949Z,7.63
2023-04-28T00:03:28.261Z,9.15
2023-04-28T00:05:57.667Z,5.82
2023-04-28T00:08:27.248Z,6.30
2023-04-28T00:10:56.704Z,10.15
2023-04-28T00:13:24.964Z,9.10
2023-04-28T00:15:53.706Z,7.15
2023-04-28T00:18:22.123Z,8.10
2023-04-28T00:20:50.204Z,6.63
2023-04-28T00:23:18.226Z,6.43
2023-04-28T00:25:46.267Z,7.18
2023-04-28T00:28:30.586Z,5.68
2023-04-28T00:31:01.968Z,9.05
2023-04-28T00:33:30.033Z,9.60
2023-04-28T00:36:01.855Z,7.72
2023-04-28T00:40:57.832Z,5.53
2023-04-28T00:43:27.286Z,6.10
2023-04-28T00:45:55.718Z,8.75
2023-04-28T00:48:24.397Z,6.95
2023-04-28T00:50:53.326Z,6.80
2023-04-28T00:53:21.432Z,6.88
2023-04-28T00:55:50.290Z,5.10
2023-04-28T00:58:18.361Z,5.72
2023-04-28T01:00:47.830Z,5.60
2023-04-28T01:03:16.157Z,6.88
2023-04-28T01:05:44.414Z,8.40
2023-04-28T01:08:12.629Z,9.05
2023-04-28T01:10:45.244Z,8.15
2023-04-28T01:13:13.440Z,5.90
2023-04-28T01:15:41.817Z,7.18
2023-04-28T01:18:11.366Z,7.88
2023-04-28T01:20:39.432Z,7.13
2023-04-28T01:23:12.478Z,7.47
2023-04-28T01:25:42.197Z,6.07
2023-04-28T01:28:10.845Z,7.20
2023-04-28T01:30:39.233Z,5.60
2023-04-28T01:33:07.421Z,6.22
2023-04-28T01:35:35.546Z,4.88
2023-04-28T01:38:03.750Z,4.97
2023-04-28T01:40:32.882Z,6.32
2023-04-28T01:43:02.304Z,5.43
2023-04-28T01:45:30.475Z,12.75
2023-04-28T01:47:58.590Z,10.65
2023-04-28T01:50:26.748Z,8.18
2023-04-28T01:52:54.806Z,8.15
2023-04-28T01:55:22.872Z,6.65
2023-04-28T01:57:51.126Z,6.72
2023-04-28T02:00:21.179Z,12.35
2023-04-28T02:02:49.285Z,7.72
2023-04-28T02:05:17.577Z,5.70
2023-04-28T02:07:46.637Z,7.97
2023-04-28T02:10:14.921Z,6.05
2023-04-28T02:12:43.007Z,9.00
2023-04-28T02:15:11.768Z,7.60
2023-04-28T02:17:41.501Z,6.20
2023-04-28T02:20:10.729Z,5.45
2023-04-28T02:22:38.817Z,4.93
2023-04-28T02:25:07.695Z,5.15
2023-04-28T02:27:36.658Z,6.80
2023-04-28T02:30:05.467Z,6.32
2023-04-28T02:32:33.908Z,6.38
2023-04-28T02:35:03.398Z,6.53
2023-04-28T02:37:31.492Z,6.20
2023-04-28T02:39:59.569Z,5.93
2023-04-28T02:42:27.590Z,5.15
2023-04-28T02:44:55.632Z,8.48
2023-04-28T02:47:23.691Z,6.65
2023-04-28T02:49:51.751Z,7.07
2023-04-28T02:52:21.167Z,7.55
2023-04-28T02:54:54.269Z,9.55
2023-04-28T02:57:22.336Z,5.82
2023-04-28T02:59:50.392Z,6.28
2023-04-28T03:02:20.630Z,6.60
2023-04-28T03:04:48.745Z,5.68
2023-04-28T03:07:16.961Z,6.72
2023-04-28T03:09:47.142Z,9.07
2023-04-28T03:12:15.280Z,7.45
2023-04-28T03:14:43.328Z,5.53
2023-04-28T03:17:11.506Z,6.22
2023-04-28T03:19:39.579Z,5.00
2023-04-28T03:22:07.647Z,6.95
2023-04-28T03:24:35.695Z,6.78
2023-04-28T03:27:05.848Z,4.70
2023-04-28T03:29:33.875Z,5.43
2023-04-28T03:32:02.244Z,14.80
2023-04-28T03:34:30.509Z,14.00
2023-04-28T03:36:58.557Z,11.73
2023-04-28T03:39:26.680Z,8.85
2023-04-28T03:41:54.836Z,6.38
2023-04-28T03:44:24.322Z,9.20
2023-04-28T03:46:52.349Z,8.35
2023-04-28T03:49:20.474Z,6.97
2023-04-28T03:51:50.048Z,7.22
2023-04-28T03:54:18.319Z,6.28
2023-04-28T03:56:47.176Z,7.28
2023-04-28T03:59:15.228Z,6.50
2023-04-28T04:01:44.649Z,7.53
2023-04-28T04:04:13.271Z,8.07
2023-04-28T04:06:41.551Z,6.18
2023-04-28T04:09:09.650Z,14.25
2023-04-28T04:11:37.668Z,7.45
2023-04-28T04:14:06.223Z,9.52
2023-04-28T04:16:34.327Z,10.50
2023-04-28T04:19:03.863Z,8.07
2023-04-28T04:21:32.944Z,7.97
2023-04-28T04:24:01.352Z,9.75
2023-04-28T04:26:29.457Z,6.75
2023-04-28T04:28:57.480Z,6.28
2023-04-28T04:31:25.672Z,7.72
2023-04-28T04:33:53.806Z,7.70
2023-04-28T04:36:23.436Z,8.70
2023-04-28T04:38:53.239Z,6.35
2023-04-28T04:41:22.706Z,9.98
2023-04-28T04:43:50.732Z,8.40
2023-04-28T04:46:18.786Z,8.63
2023-04-28T04:48:47.165Z,6.88
2023-04-28T04:51:15.245Z,8.48
2023-04-28T04:53:45.071Z,8.60
2023-04-28T04:56:13.138Z,7.55
2023-04-28T04:58:45.348Z,9.82
2023-04-28T05:01:13.428Z,9.73
2023-04-28T05:03:41.540Z,7.25
2023-04-28T05:06:09.729Z,8.52
2023-04-28T05:08:37.786Z,7.32
2023-04-28T05:11:07.273Z,8.35
2023-04-28T05:13:35.317Z,7.57
2023-04-28T05:16:03.436Z,10.75
2023-04-28T05:18:31.633Z,6.82
2023-04-28T05:20:59.718Z,7.65
2023-04-28T05:23:27.824Z,9.48
2023-04-28T05:25:56.127Z,8.95
2023-04-28T05:28:25.678Z,8.98
2023-04-28T05:30:53.730Z,10.18
2023-04-28T05:33:22.478Z,12.35
2023-04-28T05:35:50.669Z,8.70
2023-04-28T05:38:18.723Z,9.98
2023-04-28T05:40:46.818Z,8.85
2023-04-28T05:43:14.896Z,9.20
2023-04-28T05:45:44.419Z,17.80
2023-04-28T05:48:12.597Z,13.32
2023-04-28T05:50:40.703Z,8.45
2023-04-28T05:53:09.036Z,11.13
2023-04-28T05:55:37.364Z,8.48
2023-04-28T05:58:05.665Z,8.73
2023-04-28T06:00:34.372Z,5.95
2023-04-28T06:03:04.044Z,9.60
2023-04-28T06:05:32.691Z,8.80
2023-04-28T06:08:01.010Z,11.52
2023-04-28T06:10:29.081Z,6.53
2023-04-28T06:12:57.136Z,9.07
2023-04-28T06:15:25.352Z,10.38
2023-04-28T06:17:53.934Z,7.85
2023-04-28T06:20:24.533Z,8.13
2023-04-28T06:22:52.599Z,6.53
2023-04-28T06:25:20.640Z,8.75
2023-04-28T06:27:48.782Z,8.23
2023-04-28T06:30:20.125Z,7.82
2023-04-28T06:32:48.254Z,10.55
2023-04-28T06:35:17.487Z,10.25
2023-04-28T06:37:47.203Z,7.75
2023-04-28T06:40:15.238Z,9.32
2023-04-28T06:42:43.341Z,10.07
2023-04-28T06:45:11.987Z,11.93
2023-04-28T06:47:40.768Z,10.95
2023-04-28T06:50:09.669Z,9.80
2023-04-28T06:52:39.500Z,9.82
2023-04-28T06:55:10.940Z,11.35
2023-04-28T06:57:39.051Z,7.97
2023-04-28T07:00:08.823Z,9.45
2023-04-28T07:02:37.825Z,8.73
2023-04-28T07:05:06.718Z,8.30
2023-04-28T07:07:34.731Z,8.27
2023-04-28T07:10:02.872Z,11.10
2023-04-28T07:12:32.304Z,8.82
2023-04-28T07:15:00.443Z,7.68
2023-04-28T07:17:28.549Z,7.97
2023-04-28T07:19:56.695Z,7.65
2023-04-28T07:22:24.741Z,9.95
2023-04-28T07:24:53.659Z,8.27
2023-04-28T07:27:21.740Z,8.52
2023-04-28T07:29:51.173Z,8.77
2023-04-28T07:32:19.449Z,8.18
2023-04-28T07:34:47.654Z,8.70
2023-04-28T07:37:15.828Z,6.82
2023-04-28T07:39:43.907Z,7.07
2023-04-28T07:42:12.230Z,7.93
2023-04-28T07:44:40.268Z,6.82
2023-04-28T07:47:10.623Z,10.20
2023-04-28T07:49:38.676Z,16.58
2023-04-28T07:52:07.034Z,9.32
2023-04-28T07:54:36.999Z,10.30
2023-04-28T07:57:06.317Z,7.97
2023-04-28T07:59:34.979Z,8.45
2023-04-28T08:02:03.143Z,9.13
2023-04-28T08:04:33.999Z,10.25
2023-04-28T08:07:02.719Z,24.02
2023-04-28T08:09:30.912Z,14.65
2023-04-28T08:12:00.822Z,9.45
2023-04-28T08:14:29.493Z,10.65
2023-04-28T08:16:58.817Z,39.17
2023-04-28T08:19:27.217Z,50.30
2023-04-28T08:21:56.653Z,17.63
2023-04-28T08:24:24.718Z,9.90
2023-04-28T08:26:52.784Z,12.90
2023-04-28T08:29:20.822Z,17.52
2023-04-28T08:31:48.917Z,16.83
2023-04-28T08:34:17.171Z,8.98
2023-04-28T08:36:45.249Z,10.82
2023-04-28T08:39:14.657Z,6.93
2023-04-28T08:41:42.873Z,10.30
2023-04-28T08:44:11.851Z,12.98
2023-04-28T08:46:41.942Z,9.82
2023-04-28T08:49:15.807Z,6.70
2023-04-28T08:51:47.689Z,15.52
2023-04-28T08:56:57.070Z,14.77
2023-04-28T08:59:25.265Z,17.25
2023-04-28T09:01:53.464Z,10.20
2023-04-28T09:04:22.447Z,18.05
2023-04-28T09:06:50.725Z,18.90
2023-04-28T09:09:25.197Z,17.55
2023-04-28T09:11:55.492Z,12.90
2023-04-28T09:14:24.580Z,10.73
2023-04-28T09:16:53.510Z,13.32
2023-04-28T09:19:21.952Z,24.75
2023-04-28T09:21:52.842Z,14.10
2023-04-28T09:24:36.698Z,12.02
2023-04-28T09:27:07.570Z,17.33
2023-04-28T09:29:35.795Z,19.27
2023-04-28T09:32:15.393Z,9.35
2023-04-28T09:34:47.497Z,19.45
2023-04-28T09:42:34.578Z,9.13
2023-04-28T09:45:03.419Z,11.85
2023-04-28T09:47:33.457Z,15.50
2023-04-28T09:50:02.721Z,8.52
2023-04-28T09:52:30.859Z,12.13
2023-04-28T09:55:02.379Z,14.00
2023-04-28T09:57:32.843Z,9.80
2023-04-28T10:00:01.709Z,14.90
2023-04-28T10:05:02.481Z,11.75
2023-04-28T10:07:35.722Z,19.27
2023-04-28T10:10:05.604Z,20.00
2023-04-28T10:12:34.715Z,15.40
2023-04-28T10:15:03.669Z,21.63
2023-04-28T10:17:32.981Z,16.45
2023-04-28T10:20:01.807Z,13.70
2023-04-28T10:22:43.491Z,48.47
2023-04-28T10:25:26.228Z,32.42
2023-04-28T10:27:54.811Z,22.73
2023-04-28T10:30:27.957Z,18.60
2023-04-28T10:33:26.927Z,17.83
2023-04-28T10:35:55.638Z,11.48
2023-04-28T10:38:23.742Z,20.85
2023-04-28T10:40:53.824Z,18.33
2023-04-28T10:43:39.564Z,14.45
2023-04-28T10:46:11.672Z,22.98
2023-04-28T10:51:33.093Z,33.53
2023-04-28T10:54:18.143Z,27.08
2023-04-28T10:57:22.880Z,20.83
2023-04-28T10:59:51.681Z,17.98
2023-04-28T11:02:50.241Z,19.40
2023-04-28T11:05:20.170Z,22.10
2023-04-28T11:08:32.636Z,21.05
2023-04-28T11:11:25.676Z,20.80
2023-04-28T11:13:56.014Z,13.48
2023-04-28T11:16:26.606Z,37.08
2023-04-28T11:18:57.865Z,62.90
2023-04-28T11:21:28.256Z,35.10
2023-04-28T11:23:56.551Z,45.22
2023-04-28T11:26:24.748Z,23.83
2023-04-28T11:28:55.695Z,18.35
2023-04-28T11:31:25.258Z,30.23
2023-04-28T11:33:56.543Z,25.45
2023-04-28T11:36:33.563Z,14.75
2023-04-28T11:39:02.042Z,15.68
2023-04-28T11:41:30.075Z,15.00
2023-04-28T11:43:59.468Z,14.98
2023-04-28T11:46:27.736Z,20.40
2023-04-28T11:49:04.517Z,20.98
2023-04-28T11:51:34.887Z,13.18
2023-04-28T11:54:03.717Z,22.55
2023-04-28T11:56:32.187Z,19.98
2023-04-28T11:59:09.694Z,19.75
2023-04-28T12:01:47.792Z,20.42
2023-04-28T12:04:16.599Z,18.35
2023-04-28T12:06:44.761Z,16.52
2023-04-28T12:09:21.498Z,17.40
2023-04-28T12:12:02.361Z,14.07
2023-04-28T12:14:35.237Z,15.90
2023-04-28T12:17:04.105Z,17.38
2023-04-28T12:19:44.284Z,16.75
2023-04-28T12:22:12.464Z,17.85
2023-04-28T12:24:40.999Z,17.70
2023-04-28T12:27:21.690Z,14.25
2023-04-28T12:29:51.582Z,14.52
2023-04-28T12:32:20.358Z,15.75
2023-04-28T12:34:50.650Z,14.00
2023-04-28T12:37:18.855Z,18.00
2023-04-28T12:39:47.114Z,16.30
2023-04-28T12:42:15.369Z,16.50
2023-04-28T12:44:43.413Z,19.50
2023-04-28T12:47:12.827Z,15.88
2023-04-28T12:49:41.571Z,19.77
2023-04-28T12:52:09.800Z,18.42
2023-04-28T12:54:38.191Z,16.15
2023-04-28T12:57:06.519Z,19.08
2023-04-28T12:59:34.754Z,20.98
2023-04-28T13:02:03.381Z,18.48
2023-04-28T13:04:33.383Z,22.63
2023-04-28T13:07:01.671Z,33.20
2023-04-28T13:09:30.138Z,77.70
2023-04-28T13:11:58.732Z,58.83
2023-04-28T13:14:27.952Z,40.95
2023-04-28T13:16:56.120Z,22.13
2023-04-28T13:19:24.234Z,41.88
2023-04-28T13:21:53.726Z,36.55
2023-04-28T13:24:21.740Z,22.00
2023-04-28T13:26:49.801Z,45.00
2023-04-28T13:29:18.202Z,39.58
2023-04-28T13:31:46.441Z,32.05
2023-04-28T13:34:16.372Z,32.30
2023-04-28T13:36:44.927Z,21.73
2023-04-28T13:39:14.961Z,28.85
2023-04-28T13:41:43.194Z,40.70
2023-04-28T13:44:11.363Z,31.02
2023-04-28T13:46:39.402Z,23.40
2023-04-28T13:49:07.613Z,19.77
2023-04-28T13:51:35.660Z,21.83
2023-04-28T13:54:04.723Z,20.67
2023-04-28T13:56:34.229Z,20.88
2023-04-28T13:59:02.389Z,19.92
2023-04-28T14:01:31.214Z,19.85
2023-04-28T14:03:59.581Z,23.17
2023-04-28T14:06:28.882Z,23.33
2023-04-28T14:08:57.011Z,19.55
2023-04-28T14:11:25.137Z,19.60
2023-04-28T14:13:54.548Z,20.38
2023-04-28T14:16:22.734Z,19.17
2023-04-28T14:18:50.873Z,16.48
2023-04-28T14:21:18.907Z,18.95
2023-04-28T14:23:47.130Z,21.58
2023-04-28T14:26:15.168Z,18.20
2023-04-28T14:28:43.224Z,18.17
2023-04-28T14:31:13.643Z,19.17
2023-04-28T14:33:41.953Z,18.13
2023-04-28T14:36:10.221Z,22.35
2023-04-28T14:38:40.089Z,24.52
2023-04-28T14:41:08.387Z,23.20
2023-04-28T14:43:36.505Z,20.88
2023-04-28T14:46:05.750Z,31.20
2023-04-28T14:48:36.358Z,32.53
2023-04-28T14:51:04.872Z,27.58
2023-04-28T14:53:33.083Z,23.85
2023-04-28T14:56:11.248Z,23.15
2023-04-28T14:58:45.933Z,20.35
2023-04-28T15:01:14.331Z,20.08
2023-04-28T15:03:47.415Z,20.92
2023-04-28T15:06:15.616Z,19.88
2023-04-28T15:08:43.669Z,23.25
2023-04-28T15:11:11.845Z,19.98
2023-04-28T15:13:42.385Z,17.17
2023-04-28T15:16:11.352Z,18.73
2023-04-28T15:18:39.552Z,18.52
2023-04-28T15:21:09.488Z,17.90
2023-04-28T15:23:37.548Z,17.88
2023-04-28T15:26:05.769Z,17.17
2023-04-28T15:28:34.581Z,16.27
2023-04-28T15:31:02.990Z,16.48
2023-04-28T15:33:31.660Z,17.63
2023-04-28T15:35:59.771Z,14.65
2023-04-28T15:38:31.273Z,14.82
2023-04-28T15:40:59.312Z,13.88
2023-04-28T15:43:27.345Z,14.57
2023-04-28T15:45:55.575Z,14.25
2023-04-28T15:48:24.050Z,12.23
2023-04-28T15:50:52.098Z,13.73
2023-04-28T15:53:20.715Z,12.45
2023-04-28T15:55:50.147Z,14.60
2023-04-28T15:58:18.202Z,15.38
2023-04-28T16:00:47.057Z,13.85
2023-04-28T16:03:15.278Z,20.40
2023-04-28T16:05:43.503Z,17.50
2023-04-28T16:08:11.598Z,14.60
2023-04-28T16:10:41.253Z,13.95
2023-04-28T16:13:12.273Z,15.50
2023-04-28T16:15:41.790Z,13.85
2023-04-28T16:18:10.129Z,10.48
2023-04-28T16:20:38.397Z,8.73
2023-04-28T16:23:07.239Z,8.80
2023-04-28T16:25:35.370Z,9.60
2023-04-28T16:28:03.518Z,10.27
2023-04-28T16:30:34.093Z,13.35
2023-04-28T16:33:02.216Z,11.30
2023-04-28T16:35:30.376Z,10.25
2023-04-28T16:37:58.417Z,87.05
2023-04-28T16:40:26.631Z,23.08
2023-04-28T16:42:54.666Z,17.35
2023-04-28T16:45:23.584Z,45.08
2023-04-28T16:47:53.111Z,99.13
2023-04-28T16:50:21.209Z,107.50
2023-04-28T16:52:49.555Z,109.20
2023-04-28T16:55:18.861Z,57.50
2023-04-28T16:57:47.007Z,24.33
2023-04-28T17:00:16.190Z,13.75
2023-04-28T17:02:44.392Z,10.98
2023-04-28T17:05:14.059Z,9.50
2023-04-28T17:07:42.158Z,8.70
2023-04-28T17:10:11.047Z,13.45
2023-04-28T17:12:39.731Z,14.30
2023-04-28T17:15:09.459Z,11.43
2023-04-28T17:17:37.848Z,10.90
2023-04-28T17:20:07.011Z,6.95
2023-04-28T17:22:36.483Z,7.07
2023-04-28T17:25:05.574Z,9.85
2023-04-28T17:27:33.653Z,9.27
2023-04-28T17:30:01.702Z,41.38
2023-04-28T17:32:32.848Z,20.67
2023-04-28T17:35:01.198Z,10.15
2023-04-28T17:37:29.266Z,6.35
2023-04-28T17:39:58.963Z,6.80
2023-04-28T17:42:26.999Z,7.93
2023-04-28T17:44:55.040Z,7.72
2023-04-28T17:47:23.116Z,7.03
2023-04-28T17:49:51.756Z,7.05
2023-04-28T17:52:19.902Z,9.57
2023-04-28T17:54:48.384Z,8.32
2023-04-28T17:57:18.456Z,6.55
2023-04-28T17:59:49.797Z,7.30
2023-04-28T18:02:19.815Z,18.23
2023-04-28T18:04:47.944Z,11.07
2023-04-28T18:07:16.400Z,9.48
2023-04-28T18:09:44.564Z,12.15
2023-04-28T18:12:12.979Z,10.45
2023-04-28T18:14:44.357Z,66.57
2023-04-28T18:17:12.802Z,63.42
2023-04-28T18:19:40.849Z,41.95
2023-04-28T18:22:09.021Z,55.65
2023-04-28T18:24:37.494Z,17.63
2023-04-28T18:27:05.593Z,12.77
2023-04-28T18:29:33.677Z,9.05
2023-04-28T18:32:03.184Z,9.88
2023-04-28T18:34:31.263Z,8.00
2023-04-28T18:36:59.354Z,8.35
2023-04-28T18:39:27.457Z,13.02
2023-04-28T18:41:55.522Z,20.15
2023-04-28T18:44:24.073Z,19.35
2023-04-28T18:46:52.602Z,13.45
2023-04-28T18:49:22.815Z,16.25
2023-04-28T18:51:50.876Z,11.10
2023-04-28T18:54:18.929Z,8.32
2023-04-28T18:56:48.012Z,14.40
2023-04-28T18:59:16.133Z,10.07
2023-04-28T19:01:44.175Z,6.85
2023-04-28T19:04:12.777Z,7.18
2023-04-28T19:06:43.986Z,7.78
2023-04-28T19:09:12.050Z,7.40
2023-04-28T19:11:40.099Z,7.10
2023-04-28T19:14:08.182Z,9.50
2023-04-28T19:16:36.696Z,9.35
2023-04-28T19:19:04.997Z,6.70
2023-04-28T19:21:35.841Z,9.18
2023-04-28T19:24:05.545Z,7.68
2023-04-28T19:26:33.636Z,9.80
2023-04-28T19:29:02.236Z,6.20
2023-04-28T19:31:30.416Z,29.58
2023-04-28T19:33:59.054Z,19.60
2023-04-28T19:36:28.286Z,15.00
2023-04-28T19:38:56.317Z,12.98
2023-04-28T19:41:25.811Z,18.40
2023-04-28T19:43:53.844Z,16.10
2023-04-28T19:46:21.948Z,11.38
2023-04-28T19:48:50.266Z,8.82
2023-04-28T19:51:18.334Z,7.38
2023-04-28T19:53:47.138Z,6.13
2023-04-28T19:56:15.228Z,7.22
2023-04-28T19:58:44.634Z,5.55
2023-04-28T20:01:12.690Z,6.95
2023-04-28T20:03:40.896Z,7.13
2023-04-28T20:06:09.401Z,7.03
2023-04-28T20:08:37.493Z,5.55
2023-04-28T20:11:06.771Z,6.93
2023-04-28T20:13:34.845Z,7.78
2023-04-28T20:16:04.490Z,5.50
2023-04-28T20:18:32.581Z,3.90
2023-04-28T20:21:00.622Z,4.03
2023-04-28T20:23:29.326Z,3.75
2023-04-28T20:25:57.499Z,4.85
2023-04-28T20:28:25.591Z,5.43
2023-04-28T20:30:53.780Z,4.88
2023-04-28T20:33:23.211Z,5.82
2023-04-28T20:35:51.255Z,6.95
2023-04-28T20:38:19.847Z,4.30
2023-04-28T20:40:48.052Z,3.78
2023-04-28T20:43:16.103Z,5.68
2023-04-28T20:45:44.474Z,3.42
2023-04-28T20:48:12.970Z,5.60
2023-04-28T20:50:43.763Z,3.38
2023-04-28T20:53:12.239Z,5.28
2023-04-28T20:55:40.289Z,3.58
2023-04-28T20:58:08.534Z,4.70
2023-04-28T21:00:40.207Z,6.10
2023-04-28T21:03:15.049Z,8.30
2023-04-28T21:05:45.749Z,4.80
2023-04-28T21:08:14.326Z,7.13
2023-04-28T21:10:42.367Z,4.68
2023-04-28T21:13:10.632Z,5.22
2023-04-28T21:15:39.291Z,4.13
2023-04-28T21:18:07.594Z,5.85
2023-04-28T21:20:35.756Z,3.72
2023-04-28T21:23:05.220Z,3.85
2023-04-28T21:25:33.298Z,4.10
2023-04-28T21:28:01.893Z,3.88
2023-04-28T21:30:30.174Z,4.18
2023-04-28T21:32:58.451Z,4.40
2023-04-28T21:35:26.673Z,4.05
2023-04-28T21:37:54.789Z,3.25
2023-04-28T21:40:24.594Z,3.05
2023-04-28T21:42:52.645Z,3.70
2023-04-28T21:45:20.749Z,5.00
2023-04-28T21:47:48.832Z,6.45
2023-04-28T21:50:17.067Z,5.80
2023-04-28T21:52:45.259Z,3.80
2023-04-28T21:55:13.317Z,5.13
2023-04-28T21:57:42.740Z,3.97
2023-04-28T22:00:12.762Z,4.10
2023-04-28T22:02:41.622Z,4.32
2023-04-28T22:05:10.992Z,3.67
2023-04-28T22:07:39.122Z,3.83
2023-04-28T22:10:08.791Z,3.58
2023-04-28T22:12:36.877Z,4.15
2023-04-28T22:15:07.301Z,3.33
2023-04-28T22:17:35.372Z,3.45
2023-04-28T22:20:03.412Z,3.30
2023-04-28T22:22:31.786Z,3.53
2023-04-28T22:25:00.257Z,3.67
2023-04-28T22:27:30.368Z,3.25
2023-04-28T22:29:58.811Z,3.65
2023-04-28T22:32:29.193Z,4.30
2023-04-28T22:34:57.307Z,3.85
2023-04-28T22:37:25.397Z,4.50
2023-04-28T22:39:53.669Z,8.10
2023-04-28T22:42:21.775Z,3.67
2023-04-28T22:44:49.850Z,3.88
2023-04-28T22:47:18.252Z,5.47
2023-04-28T22:49:47.895Z,4.45
2023-04-28T22:52:18.212Z,6.72
2023-04-28T22:54:46.218Z,11.77
2023-04-28T22:57:14.289Z,7.93
2023-04-28T22:59:42.394Z,7.40
2023-04-28T23:02:13.272Z,4.90
2023-04-28T23:04:41.705Z,5.25
2023-04-28T23:07:11.218Z,5.10
2023-04-28T23:09:39.294Z,3.60
2023-04-28T23:12:07.576Z,3.50
2023-04-28T23:14:35.708Z,3.75
2023-04-28T23:17:03.739Z,5.97
2023-04-28T23:19:31.814Z,3.83
2023-04-28T23:21:59.869Z,3.95
2023-04-28T23:24:29.394Z,2.75
2023-04-28T23:26:57.595Z,6.25
2023-04-28T23:29:25.661Z,3.90
2023-04-28T23:31:54.923Z,3.83
2023-04-28T23:34:23.344Z,4.40
2023-04-28T23:36:51.906Z,4.93
2023-04-28T23:39:19.983Z,5.32
2023-04-28T23:41:49.381Z,4.47
2023-04-28T23:44:17.462Z,4.28
2023-04-28T23:46:45.654Z,4.82
2023-04-28T23:49:13.743Z,4.07
2023-04-28T23:51:41.945Z,3.60
2023-04-28T23:54:10.176Z,4.43
2023-04-28T23:56:38.217Z,3.20
2023-04-28T23:59:08.351Z,3.63
